Terminal Aerodrome Forecast
Issued by NWS

Current Version | Previous Version | Graphics & Text | Print | Product List | Glossary On
Versions: 1 2 3 4 5 6 7 8 9 10 11 12 13 14 15
370
FTUS41 KILN 231120
TAFLCK
TAF
KLCK 231120Z 2312/2412 03004KT P6SM SKC
     FM231900 03006KT P6SM BKN050
     FM240000 VRB02KT P6SM SKC=

USA.gov is the U.S. government's official web portal to all federal, state and local government web resources and services.